createdAt,value
2023-05-10T00:02:21.950Z,6.68
2023-05-10T00:04:51.905Z,6.32
2023-05-10T00:07:19.106Z,6.22
2023-05-10T00:09:46.156Z,5.78
2023-05-10T00:12:13.175Z,6.70
2023-05-10T00:14:40.518Z,6.38
2023-05-10T00:17:08.885Z,5.85
2023-05-10T00:19:36.003Z,6.60
2023-05-10T00:22:02.986Z,6.60
2023-05-10T00:24:30.320Z,6.35
2023-05-10T00:26:57.308Z,6.80
2023-05-10T00:29:25.076Z,7.57
2023-05-10T00:31:54.657Z,7.13
2023-05-10T00:34:23.159Z,6.78
2023-05-10T00:36:51.085Z,7.05
2023-05-10T00:39:18.383Z,7.03
2023-05-10T00:41:45.431Z,7.43
2023-05-10T00:44:12.840Z,6.97
2023-05-10T00:46:39.905Z,6.72
2023-05-10T00:49:07.448Z,7.25
2023-05-10T00:51:36.205Z,6.45
2023-05-10T00:54:03.865Z,7.18
2023-05-10T00:56:31.155Z,6.40
2023-05-10T00:58:58.232Z,7.07
2023-05-10T01:01:26.245Z,6.95
2023-05-10T01:03:54.096Z,6.35
2023-05-10T01:06:21.879Z,6.97
2023-05-10T01:08:50.840Z,6.80
2023-05-10T01:11:18.278Z,6.95
2023-05-10T01:13:52.000Z,7.38
2023-05-10T01:16:19.157Z,7.35
2023-05-10T01:18:46.456Z,6.97
2023-05-10T01:21:22.263Z,7.35
2023-05-10T01:24:22.749Z,6.80
2023-05-10T01:27:18.719Z,6.65
2023-05-10T01:30:15.904Z,6.90
2023-05-10T01:32:55.283Z,6.53
2023-05-10T01:35:30.355Z,6.68
2023-05-10T01:38:05.005Z,6.60
2023-05-10T01:40:36.277Z,6.65
2023-05-10T01:43:05.389Z,7.53
2023-05-10T01:45:38.306Z,6.68
2023-05-10T01:48:08.527Z,6.93
2023-05-10T01:50:37.597Z,7.18
2023-05-10T01:53:09.059Z,6.07
2023-05-10T01:55:44.004Z,6.18
2023-05-10T01:58:16.523Z,6.38
2023-05-10T02:00:45.610Z,6.28
2023-05-10T02:03:16.312Z,6.80
2023-05-10T02:05:46.072Z,6.95
2023-05-10T02:08:15.637Z,6.55
2023-05-10T02:10:43.958Z,7.00
2023-05-10T02:13:12.565Z,6.50
2023-05-10T02:15:42.483Z,6.18
2023-05-10T02:18:11.844Z,6.78
2023-05-10T02:20:40.880Z,6.35
2023-05-10T02:23:09.676Z,7.20
2023-05-10T02:25:38.473Z,6.95
2023-05-10T02:28:07.412Z,6.97
2023-05-10T02:30:37.217Z,6.70
2023-05-10T02:33:06.251Z,6.70
2023-05-10T02:35:34.554Z,6.72
2023-05-10T02:38:05.771Z,7.07
2023-05-10T02:40:34.789Z,7.07
2023-05-10T02:43:03.956Z,6.72
2023-05-10T02:45:33.589Z,6.60
2023-05-10T02:48:01.394Z,5.93
2023-05-10T02:50:31.232Z,6.00
2023-05-10T02:53:05.085Z,6.50
2023-05-10T02:55:36.521Z,6.55
2023-05-10T02:58:04.286Z,5.78
2023-05-10T03:00:31.965Z,6.72
2023-05-10T03:02:59.101Z,6.40
2023-05-10T03:05:27.105Z,7.40
2023-05-10T03:07:55.362Z,5.05
2023-05-10T03:10:28.764Z,4.82
2023-05-10T03:13:06.997Z,4.97
2023-05-10T03:15:43.460Z,4.60
2023-05-10T03:18:13.999Z,5.22
2023-05-10T03:20:44.362Z,3.90
2023-05-10T03:23:21.107Z,3.85
2023-05-10T03:25:53.765Z,3.40
2023-05-10T03:28:22.835Z,3.70
2023-05-10T03:30:51.199Z,3.80
2023-05-10T03:33:18.148Z,3.63
2023-05-10T03:35:47.149Z,3.63
2023-05-10T03:38:15.100Z,3.95
2023-05-10T03:40:42.122Z,4.57
2023-05-10T03:43:10.922Z,3.70
2023-05-10T03:45:37.819Z,4.80
2023-05-10T03:48:06.293Z,6.25
2023-05-10T03:50:33.337Z,6.13
2023-05-10T03:53:00.340Z,7.47
2023-05-10T03:55:29.233Z,6.28
2023-05-10T03:57:57.099Z,6.53
2023-05-10T04:00:27.757Z,5.63
2023-05-10T04:02:56.138Z,5.90
2023-05-10T04:05:23.831Z,5.82
2023-05-10T04:07:52.715Z,6.90
2023-05-10T04:10:20.017Z,5.50
2023-05-10T04:12:47.057Z,5.88
2023-05-10T04:15:14.425Z,6.35
2023-05-10T04:17:42.806Z,5.88
2023-05-10T04:20:11.617Z,6.38
2023-05-10T04:22:38.948Z,7.20
2023-05-10T04:25:07.273Z,6.95
2023-05-10T04:27:36.840Z,7.53
2023-05-10T04:30:04.376Z,7.60
2023-05-10T04:32:32.472Z,7.47
2023-05-10T04:35:00.838Z,7.47
2023-05-10T04:37:27.786Z,7.57
2023-05-10T04:39:54.833Z,7.25
2023-05-10T04:42:21.765Z,6.93
2023-05-10T04:44:53.084Z,7.60
2023-05-10T04:47:20.062Z,7.43
2023-05-10T04:49:47.098Z,6.90
2023-05-10T04:52:17.184Z,6.95
2023-05-10T04:54:44.192Z,6.80
2023-05-10T04:57:11.098Z,7.05
2023-05-10T04:59:38.678Z,6.75
2023-05-10T05:02:09.240Z,6.90
2023-05-10T05:04:36.397Z,7.60
2023-05-10T05:07:03.379Z,7.40
2023-05-10T05:09:33.030Z,7.45
2023-05-10T05:12:00.441Z,7.25
2023-05-10T05:14:27.629Z,8.05
2023-05-10T05:16:54.771Z,7.20
2023-05-10T05:19:21.871Z,7.57
2023-05-10T05:21:48.894Z,6.80
2023-05-10T05:24:15.892Z,6.30
2023-05-10T05:26:44.602Z,6.85
2023-05-10T05:29:11.781Z,6.97
2023-05-10T05:31:38.718Z,6.25
2023-05-10T05:34:05.911Z,6.38
2023-05-10T05:36:32.928Z,7.25
2023-05-10T05:38:59.890Z,6.05
2023-05-10T05:41:27.016Z,6.55
2023-05-10T05:43:55.511Z,6.05
2023-05-10T05:46:22.614Z,6.07
2023-05-10T05:48:49.859Z,6.47
2023-05-10T05:51:16.804Z,6.00
2023-05-10T05:53:43.906Z,6.15
2023-05-10T05:56:10.875Z,5.57
2023-05-10T05:58:37.882Z,5.47
2023-05-10T06:01:06.315Z,5.53
2023-05-10T06:03:36.897Z,5.47
2023-05-10T06:06:05.296Z,4.60
2023-05-10T06:08:32.276Z,4.82
2023-05-10T06:10:59.227Z,4.45
2023-05-10T06:13:26.284Z,4.60
2023-05-10T06:15:53.234Z,4.25
2023-05-10T06:18:21.648Z,4.43
2023-05-10T06:20:50.274Z,4.18
2023-05-10T06:23:17.359Z,3.45
2023-05-10T06:25:47.029Z,3.53
2023-05-10T06:28:14.053Z,3.65
2023-05-10T06:30:40.999Z,3.70
2023-05-10T06:33:08.055Z,3.72
2023-05-10T06:35:38.118Z,3.33
2023-05-10T06:38:05.091Z,3.70
2023-05-10T06:40:32.102Z,3.38
2023-05-10T06:42:59.017Z,3.47
2023-05-10T06:45:26.205Z,2.67
2023-05-10T06:47:53.353Z,3.38
2023-05-10T06:50:22.714Z,3.15
2023-05-10T06:52:52.973Z,3.20
2023-05-10T06:55:20.415Z,2.80
2023-05-10T06:57:48.340Z,2.95
2023-05-10T07:00:16.520Z,3.10
2023-05-10T07:02:46.759Z,3.08
2023-05-10T07:05:14.422Z,3.00
2023-05-10T07:07:41.604Z,2.88
2023-05-10T07:10:10.907Z,2.97
2023-05-10T07:12:37.873Z,2.78
2023-05-10T07:15:06.157Z,2.65
2023-05-10T07:17:34.454Z,2.58
2023-05-10T07:20:01.516Z,3.08
2023-05-10T07:22:29.066Z,2.97
2023-05-10T07:24:56.132Z,3.15
2023-05-10T07:27:24.456Z,3.17
2023-05-10T07:29:51.643Z,2.85
2023-05-10T07:32:18.758Z,3.10
2023-05-10T07:34:45.705Z,3.50
2023-05-10T07:37:12.851Z,2.80
2023-05-10T07:39:39.830Z,2.78
2023-05-10T07:42:06.828Z,3.70
2023-05-10T07:44:35.232Z,3.50
2023-05-10T07:47:02.202Z,3.78
2023-05-10T07:49:29.371Z,2.97
2023-05-10T07:51:56.603Z,2.92
2023-05-10T07:54:23.722Z,3.15
2023-05-10T07:56:51.303Z,2.85
2023-05-10T07:59:18.774Z,3.38
2023-05-10T08:01:47.180Z,3.60
2023-05-10T08:04:14.327Z,2.97
2023-05-10T08:06:41.768Z,3.30
2023-05-10T08:09:09.684Z,3.47
2023-05-10T08:11:36.672Z,3.45
2023-05-10T08:14:03.744Z,3.00
2023-05-10T08:16:30.829Z,3.75
2023-05-10T08:18:59.465Z,3.60
2023-05-10T08:21:27.174Z,3.25
2023-05-10T08:23:54.376Z,3.80
2023-05-10T08:26:22.481Z,4.18
2023-05-10T08:28:49.605Z,3.78
2023-05-10T08:31:17.015Z,3.00
2023-05-10T08:33:44.790Z,3.53
2023-05-10T08:36:15.312Z,3.13
2023-05-10T08:38:42.370Z,3.20
2023-05-10T08:41:09.981Z,2.88
2023-05-10T08:43:37.701Z,3.35
2023-05-10T08:46:08.015Z,2.97
2023-05-10T08:48:38.845Z,3.80
2023-05-10T08:51:06.741Z,3.00
2023-05-10T08:53:38.305Z,2.97
2023-05-10T08:56:06.435Z,2.97
2023-05-10T08:58:37.740Z,2.92
2023-05-10T09:01:05.974Z,2.90
2023-05-10T09:03:33.537Z,2.70
2023-05-10T09:06:03.160Z,2.92
2023-05-10T09:08:31.789Z,3.05
2023-05-10T09:11:02.214Z,2.60
2023-05-10T09:13:29.782Z,3.13
2023-05-10T09:15:58.839Z,2.88
2023-05-10T09:18:29.350Z,2.22
2023-05-10T09:20:56.436Z,2.40
2023-05-10T09:23:24.304Z,2.55
2023-05-10T09:26:05.643Z,2.20
2023-05-10T09:28:33.548Z,2.10
2023-05-10T09:31:00.678Z,2.38
2023-05-10T09:33:28.370Z,2.47
2023-05-10T09:35:55.349Z,2.22
2023-05-10T09:38:22.291Z,2.30
2023-05-10T09:40:55.428Z,2.38
2023-05-10T09:43:23.848Z,2.47
2023-05-10T09:45:51.394Z,2.40
2023-05-10T09:48:18.354Z,2.20
2023-05-10T09:50:45.382Z,2.83
2023-05-10T09:53:16.787Z,1.98
2023-05-10T09:55:45.947Z,2.55
2023-05-10T09:58:13.639Z,2.03
2023-05-10T10:00:43.678Z,2.00
2023-05-10T10:03:17.201Z,2.10
2023-05-10T10:05:45.464Z,2.03
2023-05-10T10:08:13.482Z,1.80
2023-05-10T10:10:47.603Z,2.03
2023-05-10T10:13:15.070Z,2.67
2023-05-10T10:15:45.210Z,2.00
2023-05-10T10:18:15.509Z,2.10
2023-05-10T10:20:42.933Z,1.83
2023-05-10T10:23:10.778Z,2.00
2023-05-10T10:25:39.654Z,2.00
2023-05-10T10:28:27.554Z,1.92
2023-05-10T10:31:02.572Z,2.10
2023-05-10T10:33:46.259Z,2.42
2023-05-10T10:36:16.623Z,2.00
2023-05-10T10:39:00.798Z,2.17
2023-05-10T10:41:32.676Z,2.45
2023-05-10T10:44:25.688Z,2.13
2023-05-10T10:47:10.383Z,2.03
2023-05-10T10:49:49.328Z,2.13
2023-05-10T10:52:32.130Z,2.15
2023-05-10T10:55:03.725Z,2.15
2023-05-10T10:57:34.193Z,1.67
2023-05-10T11:00:25.216Z,2.50
2023-05-10T11:02:54.972Z,2.35
2023-05-10T11:05:46.661Z,2.10
2023-05-10T11:08:17.245Z,2.13
2023-05-10T11:11:08.059Z,2.30
2023-05-10T11:13:39.613Z,2.00
2023-05-10T11:16:14.901Z,2.20
2023-05-10T11:18:54.317Z,2.03
2023-05-10T11:21:21.657Z,1.60
2023-05-10T11:23:50.811Z,1.67
2023-05-10T11:26:19.262Z,2.13
2023-05-10T11:28:47.484Z,2.33
2023-05-10T11:31:15.830Z,2.03
2023-05-10T11:33:48.859Z,2.30
2023-05-10T11:36:17.590Z,2.20
2023-05-10T11:38:44.614Z,1.77
2023-05-10T11:41:12.710Z,2.17
2023-05-10T11:43:40.504Z,2.05
2023-05-10T11:46:08.416Z,1.65
2023-05-10T11:48:35.605Z,2.10
2023-05-10T11:51:04.121Z,2.10
2023-05-10T11:53:32.427Z,1.80
2023-05-10T11:56:06.085Z,2.00
2023-05-10T11:58:33.508Z,2.33
2023-05-10T12:01:01.006Z,1.88
2023-05-10T12:03:29.100Z,1.90
2023-05-10T12:05:57.013Z,2.00
2023-05-10T12:08:27.077Z,2.00
2023-05-10T12:11:04.661Z,1.90
2023-05-10T12:13:31.616Z,2.20
2023-05-10T12:15:59.149Z,2.10
2023-05-10T12:18:26.955Z,1.70
2023-05-10T12:20:57.565Z,2.10
2023-05-10T12:23:27.785Z,2.00
2023-05-10T12:25:55.049Z,1.85
2023-05-10T12:28:22.041Z,1.90
2023-05-10T12:30:49.444Z,1.98
2023-05-10T12:33:20.932Z,2.33
2023-05-10T12:35:49.624Z,1.83
2023-05-10T12:38:30.616Z,1.92
2023-05-10T12:40:58.805Z,2.10
2023-05-10T12:43:26.004Z,1.80
2023-05-10T12:45:52.978Z,2.20
2023-05-10T12:48:23.685Z,1.90
2023-05-10T12:50:50.943Z,2.10
2023-05-10T12:53:18.317Z,1.85
2023-05-10T12:55:46.687Z,2.15
2023-05-10T12:58:27.796Z,2.05
2023-05-10T13:01:01.634Z,1.75
2023-05-10T13:03:28.592Z,1.58
2023-05-10T13:05:55.524Z,2.25
2023-05-10T13:08:22.486Z,1.83
2023-05-10T13:10:51.147Z,1.58
2023-05-10T13:13:19.233Z,2.13
2023-05-10T13:15:46.232Z,2.17
2023-05-10T13:18:13.238Z,2.20
2023-05-10T13:20:40.241Z,2.00
2023-05-10T13:23:07.284Z,2.13
2023-05-10T13:25:35.400Z,2.08
2023-05-10T13:28:03.925Z,2.20
2023-05-10T13:30:31.197Z,2.03
2023-05-10T13:32:58.237Z,1.90
2023-05-10T13:35:25.449Z,1.60
2023-05-10T13:37:54.360Z,1.75
2023-05-10T13:40:21.386Z,1.52
2023-05-10T13:42:48.337Z,1.85
2023-05-10T13:45:17.303Z,1.83
2023-05-10T13:47:44.577Z,1.80
2023-05-10T13:50:11.603Z,2.10
2023-05-10T13:52:39.106Z,2.10
2023-05-10T13:55:06.728Z,1.70
2023-05-10T13:57:35.509Z,1.80
2023-05-10T14:00:03.031Z,1.73
2023-05-10T14:02:36.530Z,1.92
2023-05-10T14:05:04.167Z,2.33
2023-05-10T14:07:31.799Z,2.03
2023-05-10T14:09:58.712Z,1.80
2023-05-10T14:12:25.993Z,1.75
2023-05-10T14:14:53.406Z,2.30
2023-05-10T14:17:20.437Z,2.40
2023-05-10T14:19:48.767Z,4.05
2023-05-10T14:22:15.806Z,2.60
2023-05-10T14:24:44.418Z,2.47
2023-05-10T14:27:11.793Z,2.30
2023-05-10T14:29:38.732Z,2.15
2023-05-10T14:32:06.037Z,2.50
2023-05-10T14:34:33.249Z,3.10
2023-05-10T14:37:02.216Z,2.80
2023-05-10T14:39:30.837Z,2.30
2023-05-10T14:41:57.862Z,1.75
2023-05-10T14:44:24.857Z,1.90
2023-05-10T14:46:51.955Z,2.00
2023-05-10T14:49:18.885Z,2.30
2023-05-10T14:51:46.915Z,2.67
2023-05-10T14:54:15.409Z,1.85
2023-05-10T14:56:42.833Z,2.55
2023-05-10T14:59:09.817Z,2.65
2023-05-10T15:01:38.901Z,2.22
2023-05-10T15:04:06.334Z,1.95
2023-05-10T15:06:35.354Z,2.38
2023-05-10T15:09:02.753Z,2.47
2023-05-10T15:11:31.126Z,2.05
2023-05-10T15:13:58.325Z,2.30
2023-05-10T15:16:25.817Z,2.90
2023-05-10T15:18:52.961Z,2.15
2023-05-10T15:21:19.974Z,3.03
2023-05-10T15:23:47.114Z,2.92
2023-05-10T15:26:14.056Z,2.63
2023-05-10T15:28:42.429Z,2.97
2023-05-10T15:31:09.391Z,2.53
2023-05-10T15:33:37.915Z,3.10
2023-05-10T15:36:05.366Z,2.53
2023-05-10T15:38:32.572Z,2.60
2023-05-10T15:40:59.661Z,3.92
2023-05-10T15:43:26.654Z,3.50
2023-05-10T15:45:55.106Z,5.03
2023-05-10T15:48:22.052Z,5.13
2023-05-10T15:50:49.086Z,4.38
2023-05-10T15:53:16.033Z,2.80
2023-05-10T15:55:42.975Z,2.90
2023-05-10T15:58:10.032Z,3.40
2023-05-10T16:00:37.037Z,2.30
2023-05-10T16:03:05.553Z,2.80
2023-05-10T16:05:33.772Z,3.40
2023-05-10T16:08:01.738Z,3.00
2023-05-10T16:10:31.675Z,4.15
2023-05-10T16:12:59.020Z,2.97
2023-05-10T16:15:26.027Z,4.03
2023-05-10T16:17:53.197Z,2.67
2023-05-10T16:20:21.578Z,2.95
2023-05-10T16:22:48.531Z,3.10
2023-05-10T16:25:15.619Z,2.88
2023-05-10T16:27:43.279Z,2.50
2023-05-10T16:30:10.992Z,2.60
2023-05-10T16:32:38.149Z,3.00
2023-05-10T16:35:05.950Z,2.60
2023-05-10T16:37:34.239Z,3.83
2023-05-10T16:40:01.359Z,2.63
2023-05-10T16:42:28.594Z,2.80
2023-05-10T16:44:55.681Z,2.78
2023-05-10T16:47:24.743Z,2.40
2023-05-10T16:49:51.909Z,2.70
2023-05-10T16:52:18.982Z,2.78
2023-05-10T16:54:47.240Z,2.72
2023-05-10T16:57:14.202Z,3.00
2023-05-10T16:59:41.454Z,2.95
2023-05-10T17:02:08.481Z,3.08
2023-05-10T17:04:35.771Z,2.83
2023-05-10T17:07:02.750Z,3.00
2023-05-10T17:09:29.697Z,3.25
2023-05-10T17:11:58.035Z,2.67
2023-05-10T17:14:25.120Z,2.70
2023-05-10T17:16:55.158Z,3.15
2023-05-10T17:19:23.641Z,2.85
2023-05-10T17:21:52.524Z,3.03
2023-05-10T17:24:19.631Z,2.63
2023-05-10T17:26:46.642Z,2.75
2023-05-10T17:29:16.279Z,2.92
2023-05-10T17:31:43.275Z,2.97
2023-05-10T17:34:11.014Z,3.33
2023-05-10T17:36:38.012Z,3.20
2023-05-10T17:39:05.133Z,3.08
2023-05-10T17:41:32.126Z,2.83
2023-05-10T17:43:59.087Z,2.75
2023-05-10T17:46:27.384Z,2.85
2023-05-10T17:48:54.276Z,2.63
2023-05-10T17:51:21.309Z,2.78
2023-05-10T17:53:48.236Z,2.70
2023-05-10T17:56:15.180Z,2.60
2023-05-10T17:58:42.244Z,7.45
2023-05-10T18:01:09.231Z,3.53
2023-05-10T18:03:37.537Z,2.72
2023-05-10T18:06:05.280Z,3.30
2023-05-10T18:08:33.107Z,2.90
2023-05-10T18:11:00.191Z,2.67
2023-05-10T18:13:27.549Z,3.17
2023-05-10T18:15:54.588Z,3.35
2023-05-10T18:18:22.160Z,3.13
2023-05-10T18:20:56.448Z,3.03
2023-05-10T18:23:24.357Z,3.50
2023-05-10T18:25:51.809Z,2.80
2023-05-10T18:28:19.158Z,2.58
2023-05-10T18:30:46.221Z,2.55
2023-05-10T18:33:13.253Z,2.55
2023-05-10T18:35:40.388Z,2.45
2023-05-10T18:38:09.902Z,2.10
2023-05-10T18:40:37.187Z,2.25
2023-05-10T18:43:04.241Z,2.15
2023-05-10T18:45:31.602Z,2.58
2023-05-10T18:47:58.483Z,2.38
2023-05-10T18:50:25.412Z,2.38
2023-05-10T18:52:52.436Z,2.53
2023-05-10T18:55:20.855Z,2.47
2023-05-10T18:57:47.924Z,2.67
2023-05-10T19:00:15.218Z,2.60
2023-05-10T19:02:42.200Z,4.20
2023-05-10T19:05:09.934Z,3.50
2023-05-10T19:07:36.865Z,6.28
2023-05-10T19:10:04.204Z,5.72
2023-05-10T19:12:32.584Z,4.18
2023-05-10T19:14:59.482Z,3.55
2023-05-10T19:17:26.568Z,2.88
2023-05-10T19:19:56.508Z,3.50
2023-05-10T19:22:32.072Z,3.60
2023-05-10T19:25:11.659Z,3.10
2023-05-10T19:27:39.973Z,3.40
2023-05-10T19:30:08.414Z,4.38
2023-05-10T19:32:35.572Z,3.80
2023-05-10T19:35:02.667Z,3.47
2023-05-10T19:37:29.605Z,3.97
2023-05-10T19:39:56.648Z,3.50
2023-05-10T19:42:23.633Z,3.47
2023-05-10T19:44:51.934Z,3.88
2023-05-10T19:47:18.897Z,3.40
2023-05-10T19:49:45.852Z,3.05
2023-05-10T19:52:12.797Z,3.28
2023-05-10T19:54:39.815Z,3.80
2023-05-10T19:57:06.820Z,3.88
2023-05-10T19:59:33.808Z,3.90
2023-05-10T20:02:02.381Z,3.47
2023-05-10T20:04:29.648Z,3.60
2023-05-10T20:06:56.560Z,4.32
2023-05-10T20:09:23.600Z,3.83
2023-05-10T20:11:50.597Z,3.85
2023-05-10T20:14:18.215Z,3.92
2023-05-10T20:16:45.620Z,3.78
2023-05-10T20:19:14.342Z,3.60
2023-05-10T20:21:41.285Z,3.85
2023-05-10T20:24:08.988Z,3.60
2023-05-10T20:26:35.958Z,3.80
2023-05-10T20:29:02.950Z,3.22
2023-05-10T20:31:29.879Z,4.13
2023-05-10T20:33:56.789Z,4.32
2023-05-10T20:36:25.491Z,4.40
2023-05-10T20:38:52.425Z,4.32
2023-05-10T20:41:19.344Z,3.80
2023-05-10T20:43:46.603Z,3.92
2023-05-10T20:46:13.676Z,4.40
2023-05-10T20:48:40.588Z,4.35
2023-05-10T20:51:07.711Z,3.97
2023-05-10T20:53:36.039Z,3.67
2023-05-10T20:56:03.329Z,4.25
2023-05-10T20:58:30.692Z,3.97
2023-05-10T21:00:57.629Z,3.80
2023-05-10T21:03:24.719Z,4.32
2023-05-10T21:05:51.660Z,4.10
2023-05-10T21:08:18.596Z,4.20
2023-05-10T21:10:47.023Z,4.70
2023-05-10T21:13:14.006Z,5.63
2023-05-10T21:15:41.027Z,5.03
2023-05-10T21:18:08.079Z,4.28
2023-05-10T21:20:35.028Z,4.00
2023-05-10T21:23:01.965Z,4.03
2023-05-10T21:25:28.941Z,4.28
2023-05-10T21:27:57.824Z,3.72
2023-05-10T21:30:25.060Z,4.05
2023-05-10T21:32:52.069Z,3.40
2023-05-10T21:35:19.050Z,4.38
2023-05-10T21:37:46.061Z,4.07
2023-05-10T21:40:13.584Z,4.63
2023-05-10T21:42:40.523Z,4.40
2023-05-10T21:45:09.508Z,3.97
2023-05-10T21:47:36.417Z,4.18
2023-05-10T21:50:03.835Z,4.20
2023-05-10T21:52:30.754Z,4.10
2023-05-10T21:54:57.676Z,4.05
2023-05-10T21:57:25.105Z,4.18
2023-05-10T21:59:52.177Z,3.38
2023-05-10T22:02:20.666Z,4.72
2023-05-10T22:04:47.711Z,3.72
2023-05-10T22:07:16.585Z,3.90
2023-05-10T22:09:43.593Z,3.70
2023-05-10T22:12:10.712Z,3.60
2023-05-10T22:14:37.742Z,3.70
2023-05-10T22:17:04.749Z,4.22
2023-05-10T22:19:33.132Z,4.05
2023-05-10T22:22:00.074Z,4.40
2023-05-10T22:24:27.173Z,3.35
2023-05-10T22:26:55.265Z,3.60
2023-05-10T22:29:22.607Z,3.90
2023-05-10T22:31:49.602Z,4.15
2023-05-10T22:34:16.546Z,3.80
2023-05-10T22:36:44.875Z,4.10
2023-05-10T22:39:11.869Z,3.90
2023-05-10T22:41:38.789Z,3.35
2023-05-10T22:44:05.757Z,4.55
2023-05-10T22:46:33.075Z,3.63
2023-05-10T22:49:00.031Z,3.92
2023-05-10T22:51:27.201Z,3.72
2023-05-10T22:53:55.539Z,3.80
2023-05-10T22:56:22.733Z,3.78
2023-05-10T22:58:50.173Z,3.65
2023-05-10T23:01:17.346Z,4.10
2023-05-10T23:03:44.342Z,3.67
2023-05-10T23:06:11.446Z,4.07
2023-05-10T23:08:38.481Z,4.55
2023-05-10T23:11:06.810Z,4.90
2023-05-10T23:13:33.791Z,4.70
2023-05-10T23:16:05.253Z,4.50
2023-05-10T23:18:32.383Z,4.50
2023-05-10T23:20:59.442Z,4.38
2023-05-10T23:23:26.503Z,5.10
2023-05-10T23:25:53.526Z,4.53
2023-05-10T23:28:21.839Z,4.85
2023-05-10T23:30:55.650Z,5.38
2023-05-10T23:33:23.085Z,4.40
2023-05-10T23:35:50.120Z,5.25
2023-05-10T23:38:17.267Z,4.43
2023-05-10T23:40:48.043Z,4.68
2023-05-10T23:43:16.220Z,4.90
2023-05-10T23:45:52.883Z,4.45
2023-05-10T23:48:20.048Z,4.95
2023-05-10T23:50:47.109Z,5.15
2023-05-10T23:53:14.285Z,4.50
2023-05-10T23:55:41.446Z,4.18
2023-05-10T23:58:08.411Z,5.07
